Time;durP1;ratioP1;P1;durP2;ratioP2;P2;SDS_P1;SDS_P2;PMS_P1;PMS_P2;Temp;Humidity;BMP_temperature;BMP_pressure;BME280_temperature;BME280_humidity;BME280_pressure;Samples;Min_cycle;Max_cycle;Signal;HPM_P1;HPM_P2
2023/04/19 04:47:37;;;;;;;27.90;14.65;;;;;;;6.14;100.00;96146.09;969982;28;1961951;-75
2023/04/19 04:48:08;;;;;;;24.83;14.05;;;;;;;6.24;100.00;96167.16;1039109;28;20070;-74
2023/04/19 04:48:38;;;;;;;28.10;14.73;;;;;;;6.26;100.00;96165.13;1034596;28;20762;-75
2023/04/19 04:49:09;;;;;;;27.73;15.40;;;;;;;6.22;100.00;96157.97;1022864;29;20031;-76
2023/04/19 04:49:39;;;;;;;30.95;15.48;;;;;;;6.23;100.00;96162.16;1026833;28;20070;-75
2023/04/19 04:50:10;;;;;;;28.70;15.50;;;;;;;6.28;100.00;96165.69;1025836;28;20608;-75
2023/04/19 04:50:41;;;;;;;28.05;14.73;;;;;;;6.27;100.00;96160.69;1026826;28;20550;-74
2023/04/19 04:51:11;;;;;;;28.75;15.32;;;;;;;6.29;100.00;96167.28;1030680;28;20029;-76
2023/04/19 04:51:41;;;;;;;29.67;16.02;;;;;;;6.30;100.00;96168.84;1022911;29;20512;-76
2023/04/19 04:52:12;;;;;;;25.48;14.80;;;;;;;6.36;100.00;96167.19;1026339;28;20106;-74
2023/04/19 04:52:42;;;;;;;30.42;16.60;;;;;;;6.31;100.00;96157.44;1026747;28;20030;-75
2023/04/19 04:53:13;;;;;;;27.33;14.70;;;;;;;6.33;100.00;96155.38;1030758;28;20062;-75
2023/04/19 04:53:43;;;;;;;30.00;14.63;;;;;;;6.37;100.00;96164.34;1024588;28;20026;-75
2023/04/19 04:54:14;;;;;;;26.30;13.82;;;;;;;6.37;100.00;96161.75;1023131;28;20055;-74
2023/04/19 04:54:45;;;;;;;26.90;14.40;;;;;;;6.39;100.00;96166.72;1023090;28;20016;-74
2023/04/19 04:55:15;;;;;;;26.10;15.23;;;;;;;6.35;100.00;96165.59;1022662;28;20119;-75
2023/04/19 04:55:46;;;;;;;26.27;15.40;;;;;;;6.35;100.00;96163.00;1028042;28;20054;-74
2023/04/19 04:56:16;;;;;;;27.45;14.63;;;;;;;6.37;100.00;96166.97;1031083;28;20024;-75
2023/04/19 04:56:47;;;;;;;26.58;14.77;;;;;;;6.32;100.00;96158.22;1027047;28;20034;-75
2023/04/19 04:57:17;;;;;;;27.92;15.18;;;;;;;6.23;100.00;96143.94;1022868;28;20055;-75
2023/04/19 04:57:47;;;;;;;25.02;14.88;;;;;;;6.32;100.00;96158.22;1026833;28;20409;-75
2023/04/19 04:58:18;;;;;;;25.13;15.25;;;;;;;6.35;100.00;96158.56;1022891;29;20071;-75
2023/04/19 04:58:48;;;;;;;31.73;14.93;;;;;;;6.38;100.00;96167.75;1026766;28;20023;-75
2023/04/19 04:59:19;;;;;;;27.95;14.60;;;;;;;6.38;100.00;96163.34;1026642;28;20054;-75
2023/04/19 04:59:49;;;;;;;25.15;14.88;;;;;;;6.38;100.00;96168.53;1027126;28;20015;-75
2023/04/19 05:00:20;;;;;;;26.92;15.70;;;;;;;6.37;100.00;96155.72;1027748;28;20019;-75
2023/04/19 05:00:51;;;;;;;24.65;14.27;;;;;;;6.39;100.00;96158.91;1027895;28;20086;-74
2023/04/19 05:01:22;;;;;;;24.90;14.05;;;;;;;6.39;100.00;96166.72;1026824;28;20361;-75
2023/04/19 05:01:53;;;;;;;25.40;13.93;;;;;;;6.43;100.00;96167.84;1027203;28;20022;-76
2023/04/19 05:02:24;;;;;;;25.77;14.68;;;;;;;6.44;100.00;96166.88;1027115;28;20258;-75
2023/04/19 05:02:54;;;;;;;23.52;13.40;;;;;;;6.44;100.00;96164.25;1038611;28;20025;-75
2023/04/19 05:03:26;;;;;;;24.67;14.38;;;;;;;6.44;100.00;96161.66;1039164;28;20272;-75
2023/04/19 05:03:56;;;;;;;24.23;13.35;;;;;;;6.48;100.00;96173.19;1035225;28;20096;-76
2023/04/19 05:04:27;;;;;;;24.42;14.15;;;;;;;6.45;100.00;96165.84;1038914;28;20745;-76
2023/04/19 05:04:57;;;;;;;23.88;14.32;;;;;;;6.40;100.00;96164.91;1039159;28;20041;-75
2023/04/19 05:05:27;;;;;;;28.88;16.05;;;;;;;6.34;100.00;96167.41;1035065;28;20396;-75
2023/04/19 05:05:58;;;;;;;24.63;14.65;;;;;;;6.34;100.00;96157.00;1034617;28;20528;-75
2023/04/19 05:06:28;;;;;;;25.40;13.95;;;;;;;6.38;100.00;96159.94;1034854;28;20026;-75
2023/04/19 05:06:59;;;;;;;25.52;14.90;;;;;;;6.33;100.00;96150.16;1034933;28;20053;-76
2023/04/19 05:07:29;;;;;;;27.42;14.88;;;;;;;6.42;100.00;96163.66;1026752;28;20058;-75
2023/04/19 05:08:00;;;;;;;23.75;13.95;;;;;;;6.40;100.00;96170.91;1030396;28;20022;-73
2023/04/19 05:08:31;;;;;;;25.33;13.65;;;;;;;6.29;100.00;96146.44;1026874;28;20445;-75
2023/04/19 05:09:02;;;;;;;27.92;15.55;;;;;;;6.41;100.00;96162.09;1027102;28;20074;-75
2023/04/19 05:09:32;;;;;;;25.70;14.88;;;;;;;6.42;100.00;96162.88;1033449;28;20030;-76
2023/04/19 05:10:03;;;;;;;26.13;16.00;;;;;;;6.35;100.00;96153.34;1031142;28;20018;-77
2023/04/19 05:10:33;;;;;;;26.65;15.13;;;;;;;6.42;100.00;96165.50;1031161;28;20033;-75
2023/04/19 05:11:04;;;;;;;24.13;14.48;;;;;;;6.33;100.00;96151.97;1030642;28;20018;-76
2023/04/19 05:11:34;;;;;;;23.85;13.73;;;;;;;6.33;100.00;96147.56;1023099;28;20054;-76
2023/04/19 05:12:05;;;;;;;23.83;13.85;;;;;;;6.41;100.00;96161.31;1022543;29;20055;-75
2023/04/19 05:12:36;;;;;;;26.67;14.93;;;;;;;6.36;100.00;96151.53;1028457;28;20019;-75
2023/04/19 05:13:07;;;;;;;27.17;15.63;;;;;;;6.41;100.00;96162.09;1026607;28;20023;-76
2023/04/19 05:13:37;;;;;;;26.50;14.95;;;;;;;6.41;100.00;96156.09;1026791;28;20277;-75
2023/04/19 05:14:08;;;;;;;26.27;14.80;;;;;;;6.41;100.00;96159.50;1026714;28;20027;-75
2023/04/19 05:14:38;;;;;;;26.55;14.40;;;;;;;6.37;100.00;96161.75;1022286;28;20018;-75
2023/04/19 05:15:10;;;;;;;23.45;13.95;;;;;;;6.25;100.00;96153.13;1022816;29;20026;-77
2023/04/19 05:15:41;;;;;;;27.25;14.88;;;;;;;6.33;100.00;96160.59;1026775;28;20030;-76
2023/04/19 05:16:11;;;;;;;26.27;15.05;;;;;;;6.30;100.00;96155.03;1028988;28;20266;-76
2023/04/19 05:16:42;;;;;;;25.92;15.15;;;;;;;6.32;100.00;96158.22;1027106;28;20488;-74
2023/04/19 05:17:12;;;;;;;27.10;15.75;;;;;;;6.34;100.00;96159.59;1026946;28;20019;-77
2023/04/19 05:17:43;;;;;;;27.30;14.82;;;;;;;6.32;100.00;96150.41;1026475;28;20552;-75
2023/04/19 05:18:13;;;;;;;28.25;14.65;;;;;;;6.38;100.00;96158.13;1033683;28;20018;-76
2023/04/19 05:18:43;;;;;;;29.35;15.43;;;;;;;6.36;100.00;96154.13;1028066;28;20018;-75
2023/04/19 05:19:14;;;;;;;26.63;14.25;;;;;;;6.16;100.00;96128.41;1022770;29;20031;-76
2023/04/19 05:19:45;;;;;;;26.35;14.57;;;;;;;6.26;100.00;96148.69;1025694;28;20031;-76
2023/04/19 05:20:15;;;;;;;23.10;14.10;;;;;;;6.31;100.00;96162.66;1034766;28;20404;-75
2023/04/19 05:20:46;;;;;;;28.00;14.80;;;;;;;6.23;100.00;96144.72;1030632;28;20034;-77
2023/04/19 05:21:16;;;;;;;25.50;13.93;;;;;;;6.27;100.00;96156.31;1030731;28;20551;-75
2023/04/19 05:21:47;;;;;;;27.92;14.90;;;;;;;6.25;100.00;96147.91;1031074;28;20033;-75
2023/04/19 05:22:17;;;;;;;30.67;17.27;;;;;;;6.35;100.00;96161.16;1022754;28;20436;-77
2023/04/19 05:22:48;;;;;;;25.80;14.77;;;;;;;6.30;100.00;96152.44;1030769;28;20018;-78
2023/04/19 05:23:18;;;;;;;23.50;13.80;;;;;;;6.33;100.00;96155.38;1031035;28;20512;-74
2023/04/19 05:23:52;;;;;;;30.77;14.93;;;;;;;6.25;100.00;96147.13;1026733;28;20070;-76
2023/04/19 05:24:22;;;;;;;26.85;15.07;;;;;;;6.32;100.00;96160.84;1030418;28;20050;-73
2023/04/19 05:24:53;;;;;;;29.02;15.05;;;;;;;6.13;100.00;96128.84;1030488;28;20767;-74
2023/04/19 05:25:24;;;;;;;26.30;14.65;;;;;;;6.33;100.00;96154.59;1029291;28;20018;-78
2023/04/19 05:25:55;;;;;;;26.30;14.40;;;;;;;6.32;100.00;96158.22;1026692;28;20274;-75
2023/04/19 05:26:25;;;;;;;30.75;14.93;;;;;;;6.33;100.00;96154.59;1031370;28;20029;-75
2023/04/19 05:26:55;;;;;;;27.60;14.25;;;;;;;6.36;100.00;96154.13;1039094;28;20020;-77
2023/04/19 05:27:26;;;;;;;25.02;13.90;;;;;;;6.34;100.00;96156.19;1039530;28;20014;-76
2023/04/19 05:27:57;;;;;;;27.77;14.80;;;;;;;6.33;100.00;96155.38;1042994;28;20021;-74
2023/04/19 05:28:27;;;;;;;26.45;14.10;;;;;;;6.27;100.00;96148.47;1038634;28;20056;-74
2023/04/19 05:28:57;;;;;;;27.08;14.10;;;;;;;6.27;100.00;96142.44;1043002;28;20028;-74
2023/04/19 05:29:28;;;;;;;29.35;15.48;;;;;;;6.34;100.00;96146.56;1034826;28;20050;-74
2023/04/19 05:29:58;;;;;;;24.13;13.43;;;;;;;6.27;100.00;96151.09;1030738;28;20022;-75
2023/04/19 05:30:29;;;;;;;27.13;15.65;;;;;;;6.28;100.00;96147.47;1029823;28;20476;-76
2023/04/19 05:30:59;;;;;;;27.05;15.10;;;;;;;6.22;100.00;96145.75;1030808;28;20078;-76
2023/04/19 05:31:30;;;;;;;25.05;14.52;;;;;;;6.18;100.00;96152.44;1038678;28;20149;-75
2023/04/19 05:32:01;;;;;;;26.83;14.98;;;;;;;6.21;100.00;96145.97;1038544;28;20025;-74
2023/04/19 05:32:31;;;;;;;26.73;13.90;;;;;;;6.17;100.00;96140.44;1026976;28;20615;-73
2023/04/19 05:33:02;;;;;;;28.08;15.02;;;;;;;6.31;100.00;96151.44;1034140;28;20023;-73
2023/04/19 05:33:32;;;;;;;25.63;14.52;;;;;;;6.31;100.00;96156.66;1034774;28;20022;-77
2023/04/19 05:34:03;;;;;;;25.27;14.77;;;;;;;6.27;100.00;96153.69;1030228;28;20129;-75
2023/04/19 05:34:35;;;;;;;29.48;15.32;;;;;;;6.23;100.00;96155.13;1030610;28;20304;-75
2023/04/19 05:35:06;;;;;;;26.48;14.40;;;;;;;6.25;100.00;96150.50;1030308;28;20385;-77
2023/04/19 05:35:36;;;;;;;27.10;14.68;;;;;;;6.29;100.00;96151.63;1029875;28;20829;-75
2023/04/19 05:36:07;;;;;;;27.50;14.27;;;;;;;6.22;100.00;96140.53;1034581;28;20261;-75
2023/04/19 05:36:37;;;;;;;27.13;14.98;;;;;;;6.34;100.00;96151.00;1033221;28;20014;-75
2023/04/19 05:37:08;;;;;;;26.23;15.48;;;;;;;6.25;100.00;96136.69;1033168;28;20106;-75
2023/04/19 05:37:40;;;;;;;26.83;15.23;;;;;;;6.32;100.00;96148.59;1030521;28;20022;-76
2023/04/19 05:38:10;;;;;;;26.63;14.88;;;;;;;6.29;100.00;96154.25;1030492;28;20054;-76
2023/04/19 05:38:41;;;;;;;29.55;14.20;;;;;;;6.31;100.00;96147.00;1025045;28;20259;-76
2023/04/19 05:39:12;;;;;;;33.60;15.02;;;;;;;6.19;100.00;96130.56;1026388;28;20564;-75
2023/04/19 05:39:42;;;;;;;30.65;15.13;;;;;;;6.29;100.00;96149.03;1026772;28;20125;-76
2023/04/19 05:40:13;;;;;;;30.58;14.25;;;;;;;6.29;100.00;96143.81;1026644;28;20258;-74
2023/04/19 05:40:43;;;;;;;26.25;14.13;;;;;;;6.22;100.00;96132.72;1026899;28;20046;-76
2023/04/19 05:41:14;;;;;;;28.00;14.18;;;;;;;6.20;100.00;96128.75;1030495;28;20025;-75
2023/04/19 05:41:44;;;;;;;25.35;14.07;;;;;;;6.27;100.00;96140.66;1030533;28;20476;-75
2023/04/19 05:42:15;;;;;;;27.27;13.88;;;;;;;6.36;100.00;96151.53;1034600;28;20145;-77
2023/04/19 05:42:45;;;;;;;23.85;14.55;;;;;;;6.29;100.00;96137.81;1034550;28;20018;-74
2023/04/19 05:43:16;;;;;;;25.92;14.10;;;;;;;6.37;100.00;96146.13;1034471;28;20026;-74
2023/04/19 05:43:46;;;;;;;24.17;14.43;;;;;;;6.31;100.00;96147.00;1026987;28;20018;-74
2023/04/19 05:44:17;;;;;;;26.17;14.75;;;;;;;6.32;100.00;96148.59;1030713;28;20082;-76
2023/04/19 05:44:47;;;;;;;30.33;14.73;;;;;;;6.24;100.00;96128.09;1031732;28;20022;-79
2023/04/19 05:45:20;;;;;;;27.60;15.40;;;;;;;6.27;100.00;96132.84;1030581;28;20019;-75
2023/04/19 05:45:50;;;;;;;25.98;15.23;;;;;;;6.26;100.00;96133.84;1030832;28;20018;-79
2023/04/19 05:46:20;;;;;;;28.52;15.32;;;;;;;6.41;100.00;96149.06;1026693;28;20258;-76
2023/04/19 05:46:51;;;;;;;25.58;14.10;;;;;;;6.40;100.00;96144.84;1028991;28;20027;-75
2023/04/19 05:47:21;;;;;;;26.80;14.55;;;;;;;6.33;100.00;96128.53;1030611;28;20424;-76
2023/04/19 05:47:52;;;;;;;24.50;14.48;;;;;;;6.36;100.00;96133.28;1030743;28;20030;-76
2023/04/19 05:48:24;;;;;;;22.73;12.85;;;;;;;6.46;100.00;96146.56;1031150;28;20046;-76
2023/04/19 05:48:54;;;;;;;28.88;14.65;;;;;;;6.53;100.00;96149.06;1031112;28;20162;-76
2023/04/19 05:49:25;;;;;;;22.85;13.25;;;;;;;6.51;100.00;96148.50;1030660;28;20699;-77
2023/04/19 05:49:55;;;;;;;27.50;14.98;;;;;;;6.53;100.00;96149.84;1026614;28;20022;-82
2023/04/19 05:50:26;;;;;;;26.52;13.80;;;;;;;6.55;100.00;96141.81;1030145;28;20015;-78
2023/04/19 05:50:57;;;;;;;26.52;14.23;;;;;;;6.52;100.00;96142.25;1030732;28;20014;-79
2023/04/19 05:51:28;;;;;;;25.73;13.75;;;;;;;6.34;100.00;96122.31;1027020;28;20078;-78
2023/04/19 05:51:58;;;;;;;27.58;13.60;;;;;;;6.45;100.00;96144.19;1030851;28;20312;-78
2023/04/19 05:52:29;;;;;;;23.70;14.00;;;;;;;6.38;100.00;96139.09;1030533;28;20508;-78
2023/04/19 05:52:59;;;;;;;26.30;14.82;;;;;;;6.40;100.00;96147.44;1027084;28;20225;-76
2023/04/19 05:53:30;;;;;;;23.98;14.23;;;;;;;6.41;100.00;96145.66;1026433;28;20512;-78
2023/04/19 05:54:00;;;;;;;28.23;14.93;;;;;;;6.37;100.00;96140.09;1034736;28;20599;-79
2023/04/19 05:54:34;;;;;;;29.10;15.82;;;;;;;6.47;100.00;96155.16;1030597;28;20078;-78
2023/04/19 05:55:06;;;;;;;24.45;13.80;;;;;;;6.49;100.00;96150.53;1034742;28;20018;-78
2023/04/19 05:55:36;;;;;;;26.52;14.82;;;;;;;6.49;100.00;96147.94;1031021;28;20963;-79
2023/04/19 05:56:06;;;;;;;27.67;13.60;;;;;;;6.50;100.00;96145.06;1030690;28;20297;-78
2023/04/19 05:56:37;;;;;;;24.88;13.88;;;;;;;6.41;100.00;96140.44;1027538;28;20023;-79
2023/04/19 05:57:08;;;;;;;28.90;14.05;;;;;;;6.30;100.00;96137.59;1031269;28;20473;-79
2023/04/19 05:57:38;;;;;;;26.52;13.90;;;;;;;6.37;100.00;96146.13;1032101;28;20034;-74
2023/04/19 05:58:09;;;;;;;29.52;14.52;;;;;;;6.42;100.00;96152.47;1030684;28;20357;-77
2023/04/19 05:58:40;;;;;;;25.25;14.82;;;;;;;6.48;100.00;96141.13;1022892;28;20034;-78
2023/04/19 05:59:10;;;;;;;26.30;13.98;;;;;;;6.52;100.00;96150.88;1026925;28;20019;-79
2023/04/19 05:59:41;;;;;;;25.42;13.98;;;;;;;6.40;100.00;96137.03;1034685;28;20480;-80
2023/04/19 06:00:12;;;;;;;27.23;14.48;;;;;;;6.39;100.00;96140.66;1030955;28;20022;-79
2023/04/19 06:00:42;;;;;;;24.58;13.35;;;;;;;6.40;100.00;96142.25;1034863;28;20530;-82
2023/04/19 06:01:13;;;;;;;24.25;13.27;;;;;;;6.47;100.00;96148.16;1026601;28;20444;-78
2023/04/19 06:01:43;;;;;;;29.48;13.95;;;;;;;6.50;100.00;96152.91;1022731;29;20024;-79
2023/04/19 06:02:14;;;;;;;23.35;13.65;;;;;;;6.33;100.00;96124.09;1034641;28;20022;-82
2023/04/19 06:02:45;;;;;;;23.35;13.95;;;;;;;6.41;100.00;96141.25;1038012;28;20094;-81
2023/04/19 06:03:15;;;;;;;28.08;13.48;;;;;;;6.38;100.00;96142.47;1030387;28;20304;-77
2023/04/19 06:03:46;;;;;;;24.25;13.20;;;;;;;6.51;100.00;96149.28;1030992;28;20027;-78
2023/04/19 06:04:17;;;;;;;25.95;13.77;;;;;;;6.48;100.00;96144.53;1030649;28;20495;-81
2023/04/19 06:04:48;;;;;;;27.20;14.88;;;;;;;6.50;100.00;96146.91;1026939;28;20019;-80
2023/04/19 06:05:18;;;;;;;28.17;14.65;;;;;;;6.43;100.00;96133.97;1026876;28;20019;-79
2023/04/19 06:05:49;;;;;;;24.08;13.75;;;;;;;6.48;100.00;96135.91;1026738;28;20797;-79
2023/04/19 06:06:22;;;;;;;26.02;13.93;;;;;;;6.52;100.00;96142.25;1031614;28;20030;-79
2023/04/19 06:06:53;;;;;;;25.13;13.98;;;;;;;6.55;100.00;96144.41;1027561;28;20030;-78
2023/04/19 06:07:23;;;;;;;29.33;14.02;;;;;;;6.49;100.00;96132.28;1029929;28;20628;-77
2023/04/19 06:07:55;;;;;;;22.48;13.23;;;;;;;6.63;100.00;96148.50;1032645;28;20025;-78
2023/04/19 06:08:25;;;;;;;24.60;13.88;;;;;;;6.64;100.00;96140.47;1033308;28;20025;-81
2023/04/19 06:08:56;;;;;;;26.75;14.45;;;;;;;6.64;100.00;96148.28;1030870;28;20284;-78
2023/04/19 06:09:26;;;;;;;26.17;14.70;;;;;;;6.56;100.00;96136.34;1026807;28;20026;-78
2023/04/19 06:09:57;;;;;;;23.75;13.75;;;;;;;6.53;100.00;96130.81;1032998;28;20152;-79
2023/04/19 06:10:27;;;;;;;26.25;13.98;;;;;;;6.54;100.00;96130.59;1030866;28;20018;-79
2023/04/19 06:10:58;;;;;;;24.52;14.18;;;;;;;6.61;100.00;96144.31;1033416;28;20018;-78
2023/04/19 06:11:29;;;;;;;24.08;13.93;;;;;;;6.66;100.00;96150.66;1030908;28;20030;-76
2023/04/19 06:12:00;;;;;;;21.15;12.68;;;;;;;6.54;100.00;96129.81;1026884;28;20026;-79
2023/04/19 06:12:31;;;;;;;24.00;12.88;;;;;;;6.59;100.00;96135.13;1030563;28;20039;-78
2023/04/19 06:13:01;;;;;;;25.60;12.75;;;;;;;6.52;100.00;96142.25;1027164;28;20282;-77
2023/04/19 06:13:32;;;;;;;24.42;13.10;;;;;;;6.39;100.00;96114.59;1030705;28;20022;-80
2023/04/19 06:14:02;;;;;;;24.63;12.82;;;;;;;6.53;100.00;96149.06;1022502;28;20532;-77
2023/04/19 06:14:33;;;;;;;21.95;12.80;;;;;;;6.36;100.00;96128.88;1025665;28;20089;-80
2023/04/19 06:15:05;;;;;;;24.27;13.25;;;;;;;6.47;100.00;96149.94;1026809;28;20027;-79
2023/04/19 06:15:35;;;;;;;26.52;13.02;;;;;;;6.29;100.00;96115.16;1026408;28;20908;-78
2023/04/19 06:16:06;;;;;;;25.02;14.02;;;;;;;6.38;100.00;96132.06;1034091;28;20273;-79
2023/04/19 06:16:37;;;;;;;26.25;13.50;;;;;;;6.51;100.00;96145.91;1030642;28;20097;-78
2023/04/19 06:17:07;;;;;;;22.58;13.85;;;;;;;6.52;100.00;96143.06;1025901;28;20266;-76
2023/04/19 06:17:38;;;;;;;23.58;14.05;;;;;;;6.55;100.00;96142.59;1026545;28;20034;-79
2023/04/19 06:18:09;;;;;;;24.50;13.60;;;;;;;6.58;100.00;96141.34;1028447;28;20094;-77
2023/04/19 06:18:42;;;;;;;26.80;14.25;;;;;;;6.60;100.00;96149.72;1030566;28;20026;-77
2023/04/19 06:19:12;;;;;;;24.15;14.07;;;;;;;6.59;100.00;96145.53;1031128;28;20380;-80
2023/04/19 06:19:43;;;;;;;23.55;13.85;;;;;;;6.53;100.00;96138.63;1032962;28;20870;-80
2023/04/19 06:20:13;;;;;;;23.98;13.02;;;;;;;6.52;100.00;96129.22;1038811;28;20033;-82
2023/04/19 06:20:44;;;;;;;23.95;13.52;;;;;;;6.60;100.00;96144.53;1031016;28;20045;-77
2023/04/19 06:21:14;;;;;;;22.95;13.00;;;;;;;6.56;100.00;96127.75;1034786;28;20022;-78
2023/04/19 06:21:46;;;;;;;25.73;13.90;;;;;;;6.60;100.00;96144.53;1030592;28;20045;-79
2023/04/19 06:22:16;;;;;;;24.50;12.93;;;;;;;6.51;100.00;96140.69;1026804;28;20030;-79
2023/04/19 06:22:47;;;;;;;23.63;13.07;;;;;;;6.63;100.00;96138.06;1030459;28;20277;-79
2023/04/19 06:23:18;;;;;;;24.23;13.00;;;;;;;6.64;100.00;96145.69;1026589;28;20022;-79
2023/04/19 06:23:48;;;;;;;24.20;13.27;;;;;;;6.68;100.00;96144.19;1030822;28;20033;-80
2023/04/19 06:24:19;;;;;;;23.70;12.85;;;;;;;6.69;100.00;96148.38;1026734;28;20019;-79
2023/04/19 06:24:49;;;;;;;20.67;12.70;;;;;;;6.64;100.00;96135.25;1028870;28;20026;-78
2023/04/19 06:25:20;;;;;;;22.20;12.77;;;;;;;6.57;100.00;96121.50;1026904;28;20038;-77
2023/04/19 06:25:50;;;;;;;23.27;12.90;;;;;;;6.71;100.00;96133.31;1026559;28;20033;-76
2023/04/19 06:26:20;;;;;;;24.17;13.10;;;;;;;6.76;100.00;96128.19;1027511;28;20027;-77
2023/04/19 06:26:51;;;;;;;22.85;12.73;;;;;;;6.80;100.00;96125.91;1030524;28;20535;-76
2023/04/19 06:27:21;;;;;;;25.30;12.98;;;;;;;6.73;100.00;96133.84;1026603;28;20063;-77
2023/04/19 06:27:52;;;;;;;24.85;12.93;;;;;;;6.85;100.00;96139.88;1022066;29;20035;-77
2023/04/19 06:28:22;;;;;;;25.30;14.27;;;;;;;6.95;100.00;96134.06;1027391;28;20026;-78
2023/04/19 06:28:53;;;;;;;24.40;12.43;;;;;;;7.00;100.00;96134.16;1026508;28;20034;-76
2023/04/19 06:29:24;;;;;;;21.35;13.15;;;;;;;6.98;100.00;96125.00;1034849;28;20053;-77
2023/04/19 06:29:55;;;;;;;24.50;13.82;;;;;;;7.08;100.00;96133.03;1038714;28;20021;-77
2023/04/19 06:30:25;;;;;;;25.88;13.10;;;;;;;7.19;100.00;96139.25;1034613;28;20265;-78
2023/04/19 06:30:56;;;;;;;28.55;13.50;;;;;;;7.05;100.00;96115.22;1034712;28;20468;-78
2023/04/19 06:31:26;;;;;;;22.52;13.13;;;;;;;7.20;100.00;96133.00;1034613;28;20105;-76
2023/04/19 06:31:56;;;;;;;21.92;13.05;;;;;;;7.13;100.00;96122.69;1034597;28;20025;-75
2023/04/19 06:32:27;;;;;;;20.33;11.98;;;;;;;7.30;100.00;96139.19;1030701;28;20037;-76
2023/04/19 06:32:57;;;;;;;21.40;12.50;;;;;;;7.28;100.00;96128.22;1023790;28;20035;-77
2023/04/19 06:33:28;;;;;;;20.17;12.05;;;;;;;7.42;100.00;96133.97;1026927;28;20022;-78
2023/04/19 06:33:59;;;;;;;24.08;13.35;;;;;;;7.46;100.00;96127.25;1026925;28;20033;-77
2023/04/19 06:34:30;;;;;;;21.95;12.52;;;;;;;7.52;100.00;96133.34;1030611;28;20032;-76
2023/04/19 06:35:01;;;;;;;22.75;11.65;;;;;;;7.55;100.00;96125.06;1032736;28;20269;-79
2023/04/19 06:35:31;;;;;;;21.98;12.32;;;;;;;7.56;100.00;96127.44;1026699;28;20113;-79
2023/04/19 06:36:02;;;;;;;21.13;11.75;;;;;;;7.57;100.00;96133.44;1022921;29;20305;-79
2023/04/19 06:36:33;;;;;;;20.42;12.27;;;;;;;7.51;100.00;96121.31;1023533;28;20027;-78
2023/04/19 06:37:03;;;;;;;21.38;11.98;;;;;;;7.52;100.00;96128.91;1035277;28;20013;-78
2023/04/19 06:37:34;;;;;;;20.45;12.60;;;;;;;7.65;100.00;96135.69;1030770;28;20023;-77
2023/04/19 06:38:04;;;;;;;23.55;12.52;;;;;;;7.64;100.00;96131.47;1026724;28;20030;-78
2023/04/19 06:38:37;;;;;;;21.02;11.95;;;;;;;7.51;100.00;96119.50;1030566;28;20419;-76
2023/04/19 06:39:08;;;;;;;20.92;13.07;;;;;;;7.57;100.00;96123.00;1030637;28;20022;-80
2023/04/19 06:39:39;;;;;;;20.08;12.30;;;;;;;7.70;100.00;96129.75;1030007;28;20270;-77
2023/04/19 06:40:10;;;;;;;21.15;12.52;;;;;;;7.66;100.00;96118.97;1029022;28;20270;-77
2023/04/19 06:40:40;;;;;;;19.60;11.23;;;;;;;7.68;100.00;96130.00;1030782;28;20031;-77
2023/04/19 06:41:11;;;;;;;18.50;11.45;;;;;;;7.57;100.00;96128.22;1031099;28;20269;-78
2023/04/19 06:41:41;;;;;;;20.98;11.85;;;;;;;7.55;100.00;96131.06;1027995;28;20027;-79
2023/04/19 06:42:12;;;;;;;20.83;11.07;;;;;;;7.38;100.00;96124.19;1030727;28;20130;-77
2023/04/19 06:42:43;;;;;;;20.63;11.85;;;;;;;7.29;100.00;96111.53;1030176;28;20093;-77
2023/04/19 06:43:13;;;;;;;20.60;11.88;;;;;;;7.38;100.00;96130.22;1034429;28;20072;-77
2023/04/19 06:43:44;;;;;;;23.85;13.02;;;;;;;7.29;100.00;96121.19;1034478;28;20029;-77
2023/04/19 06:44:14;;;;;;;21.98;12.45;;;;;;;7.16;100.00;96119.63;1038993;28;20036;-78
2023/04/19 06:44:45;;;;;;;25.05;13.27;;;;;;;7.02;100.00;96100.03;1026798;28;20474;-80
2023/04/19 06:45:16;;;;;;;22.98;11.85;;;;;;;7.15;100.00;96120.66;1026511;28;20062;-78
2023/04/19 06:45:47;;;;;;;19.92;11.93;;;;;;;7.23;100.00;96135.16;1029916;28;20431;-76
2023/04/19 06:46:17;;;;;;;22.23;13.45;;;;;;;7.22;100.00;96125.75;1026001;28;20051;-78
2023/04/19 06:46:47;;;;;;;23.63;12.55;;;;;;;7.28;100.00;96130.81;1027011;28;20493;-80
2023/04/19 06:47:18;;;;;;;19.38;11.13;;;;;;;7.22;100.00;96125.75;1031008;28;20115;-79
2023/04/19 06:47:48;;;;;;;20.75;11.43;;;;;;;7.22;100.00;96126.53;1034676;28;20052;-80
2023/04/19 06:48:19;;;;;;;23.55;11.82;;;;;;;7.22;100.00;96123.91;1031053;28;20069;-78
2023/04/19 06:48:49;;;;;;;21.90;12.20;;;;;;;7.24;100.00;96123.66;1022672;28;20034;-74
2023/04/19 06:49:21;;;;;;;20.67;12.07;;;;;;;7.32;100.00;96131.16;1030984;28;20660;-78
2023/04/19 06:49:52;;;;;;;19.90;12.65;;;;;;;7.33;100.00;96132.72;1034742;28;20886;-78
2023/04/19 06:50:22;;;;;;;20.70;11.88;;;;;;;7.25;100.00;96115.63;1028830;28;20371;-80
2023/04/19 06:50:53;;;;;;;23.80;12.40;;;;;;;7.38;100.00;96129.41;1034206;28;20014;-75
2023/04/19 06:51:24;;;;;;;24.80;11.93;;;;;;;7.40;100.00;96127.38;1030688;28;20128;-77
2023/04/19 06:51:55;;;;;;;21.50;12.68;;;;;;;7.50;100.00;96123.13;1035963;28;20265;-77
2023/04/19 06:52:25;;;;;;;22.63;11.80;;;;;;;7.58;100.00;96129.81;1030546;28;20261;-78
2023/04/19 06:52:56;;;;;;;25.48;12.50;;;;;;;7.53;100.00;96127.88;1032407;28;20409;-75
2023/04/19 06:53:26;;;;;;;21.83;11.93;;;;;;;7.38;100.00;96100.69;1033577;28;20072;-78
2023/04/19 06:53:57;;;;;;;22.83;12.38;;;;;;;7.52;100.00;96126.31;1030398;28;20026;-76
2023/04/19 06:54:27;;;;;;;23.08;12.02;;;;;;;7.51;100.00;96121.31;1026073;28;20061;-75
2023/04/19 06:54:58;;;;;;;21.85;12.07;;;;;;;7.48;100.00;96104.31;1018412;29;20123;-78
2023/04/19 06:55:28;;;;;;;20.63;12.73;;;;;;;7.63;100.00;96114.22;1030266;28;20101;-77
2023/04/19 06:56:00;;;;;;;22.17;12.63;;;;;;;7.56;100.00;96116.19;1025272;28;20019;-77
2023/04/19 06:56:49;;;;;;;29.02;14.40;;;;;;;7.56;100.00;96116.19;1034449;28;20084;-77
2023/04/19 06:57:19;;;;;;;24.30;12.57;;;;;;;7.54;100.00;96126.06;1030970;28;20258;-77
2023/04/19 06:57:50;;;;;;;22.02;12.38;;;;;;;7.46;100.00;96129.06;1030461;28;20345;-78
2023/04/19 06:58:20;;;;;;;20.55;11.95;;;;;;;7.38;100.00;96124.19;1026416;28;20081;-77
2023/04/19 06:58:50;;;;;;;25.45;11.25;;;;;;;7.27;100.00;96108.34;1030629;28;20422;-77
2023/04/19 06:59:21;;;;;;;23.25;11.50;;;;;;;7.31;100.00;96114.69;1033130;28;20322;-74
2023/04/19 06:59:53;;;;;;;23.40;11.82;;;;;;;7.37;100.00;96127.84;1034736;28;20033;-78
2023/04/19 07:00:24;;;;;;;21.67;12.10;;;;;;;7.41;100.00;96123.72;1034376;28;20480;-78
2023/04/19 07:00:54;;;;;;;18.73;11.38;;;;;;;7.39;100.00;96121.38;1038387;28;20264;-77
2023/04/19 07:01:25;;;;;;;26.15;12.82;;;;;;;7.45;100.00;96119.66;1030582;28;20395;-77
2023/04/19 07:01:56;;;;;;;21.67;12.18;;;;;;;7.44;100.00;96116.22;1026710;28;20015;-77
2023/04/19 07:02:27;;;;;;;19.67;11.80;;;;;;;7.52;100.00;96115.88;1030379;28;20106;-78
2023/04/19 07:02:59;;;;;;;20.40;11.55;;;;;;;7.63;100.00;96116.06;1031735;28;20269;-78
2023/04/19 07:03:29;;;;;;;20.90;12.27;;;;;;;7.63;100.00;96110.81;1036836;28;20029;-76
2023/04/19 07:04:00;;;;;;;22.15;12.05;;;;;;;7.65;100.00;96114.78;1030760;28;20246;-77
2023/04/19 07:04:31;;;;;;;23.58;13.70;;;;;;;7.56;100.00;96121.41;1029320;28;20113;-78
2023/04/19 07:05:01;;;;;;;22.23;11.68;;;;;;;7.53;100.00;96106.22;1026717;28;20140;-78
2023/04/19 07:05:32;;;;;;;20.27;12.20;;;;;;;7.63;100.00;96121.28;1034761;28;20018;-75
2023/04/19 07:06:03;;;;;;;24.05;11.38;;;;;;;7.66;100.00;96118.97;1034528;28;20022;-76
2023/04/19 07:06:36;;;;;;;22.58;11.90;;;;;;;7.66;100.00;96105.13;1036557;28;20530;-76
2023/04/19 07:07:07;;;;;;;20.65;11.70;;;;;;;7.78;100.00;96118.94;1035588;28;20026;-77
2023/04/19 07:07:37;;;;;;;22.92;12.55;;;;;;;7.68;100.00;96100.47;1030329;28;20301;-77
2023/04/19 07:08:08;;;;;;;23.83;12.75;;;;;;;7.75;100.00;96130.66;1026548;28;20473;-75
2023/04/19 07:08:38;;;;;;;21.08;11.48;;;;;;;7.66;100.00;96121.59;1029101;28;20023;-78